Time;durP1;ratioP1;P1;durP2;ratioP2;P2;SDS_P1;SDS_P2;PMS_P1;PMS_P2;Temp;Humidity;BMP_temperature;BMP_pressure;BME280_temperature;BME280_humidity;BME280_pressure;Samples;Min_cycle;Max_cycle;Signal;HPM_P1;HPM_P2
2021/10/03 00:02:23;;;;;;;1.47;1.07;;;19.40;82.10;;;;;;5113859;28;20446;-68
2021/10/03 00:04:54;;;;;;;1.30;0.97;;;19.40;81.80;;;;;;5113861;28;20439;-68
2021/10/03 00:07:21;;;;;;;2.60;1.67;;;19.40;81.90;;;;;;5113428;28;20891;-69
2021/10/03 00:09:49;;;;;;;1.50;1.40;;;19.50;82.50;;;;;;5113782;28;20442;-68
2021/10/03 00:12:17;;;;;;;2.10;1.27;;;19.40;82.20;;;;;;5114127;28;20438;-70
2021/10/03 00:14:44;;;;;;;2.10;1.37;;;19.50;82.40;;;;;;5113696;28;20439;-69
2021/10/03 00:17:10;;;;;;;1.20;1.10;;;19.50;82.40;;;;;;5113668;28;20443;-69
2021/10/03 00:19:39;;;;;;;2.37;1.17;;;19.50;82.20;;;;;;5113441;28;20936;-68
2021/10/03 00:22:07;;;;;;;2.13;1.40;;;19.50;82.40;;;;;;5113931;28;20443;-68
2021/10/03 00:24:35;;;;;;;1.10;1.10;;;19.50;82.30;;;;;;5113724;28;20439;-69
2021/10/03 00:27:01;;;;;;;1.20;1.10;;;19.50;82.50;;;;;;5113352;28;20819;-69
2021/10/03 00:29:29;;;;;;;6.20;1.00;;;19.50;82.50;;;;;;5114381;28;20451;-69
2021/10/03 00:31:56;;;;;;;1.80;1.10;;;19.50;82.40;;;;;;5116095;28;20447;-69
2021/10/03 00:34:22;;;;;;;1.37;1.27;;;19.50;82.50;;;;;;5117554;28;20449;-69
2021/10/03 00:36:49;;;;;;;1.20;1.10;;;19.50;82.80;;;;;;5117492;28;20474;-69
2021/10/03 00:39:17;;;;;;;2.50;1.30;;;19.50;83.00;;;;;;5117527;28;20462;-68
2021/10/03 00:41:44;;;;;;;1.40;1.20;;;19.40;82.40;;;;;;5117483;28;20453;-68
2021/10/03 00:44:11;;;;;;;2.77;1.10;;;19.40;83.20;;;;;;5117433;28;20471;-68
2021/10/03 00:46:38;;;;;;;1.47;1.03;;;19.40;83.20;;;;;;5117586;28;20442;-68
2021/10/03 00:49:05;;;;;;;2.20;1.10;;;19.40;83.20;;;;;;5117266;28;20473;-68
2021/10/03 00:51:32;;;;;;;1.17;1.07;;;19.40;83.80;;;;;;5116977;28;20961;-68
2021/10/03 00:53:58;;;;;;;1.50;1.20;;;19.40;83.60;;;;;;5117257;28;20469;-68
2021/10/03 00:56:26;;;;;;;2.10;1.20;;;19.40;83.70;;;;;;5117085;28;20477;-68
2021/10/03 00:58:53;;;;;;;1.63;1.47;;;19.30;84.00;;;;;;5117040;28;20463;-69
2021/10/03 01:01:21;;;;;;;1.30;0.90;;;19.30;84.10;;;;;;5117099;28;20815;-68
2021/10/03 01:03:48;;;;;;;1.70;1.60;;;19.30;84.00;;;;;;5117045;28;20804;-68
2021/10/03 01:06:15;;;;;;;2.07;1.20;;;19.30;84.60;;;;;;5116822;28;20458;-68
2021/10/03 01:08:42;;;;;;;1.20;1.10;;;19.30;84.40;;;;;;5116897;28;20454;-68
2021/10/03 01:11:09;;;;;;;1.67;1.23;;;19.30;85.50;;;;;;5116834;28;20446;-68
2021/10/03 01:13:38;;;;;;;2.43;1.37;;;19.30;84.70;;;;;;5117930;28;20443;-68
2021/10/03 01:16:06;;;;;;;1.90;1.20;;;19.30;84.50;;;;;;5116339;28;20921;-68
2021/10/03 01:18:33;;;;;;;1.67;1.20;;;19.30;84.70;;;;;;5116644;28;20477;-69
2021/10/03 01:21:05;;;;;;;2.70;1.10;;;19.20;84.80;;;;;;5116659;28;20817;-69
2021/10/03 01:23:32;;;;;;;1.20;1.10;;;19.20;85.20;;;;;;5116690;28;20423;-69
2021/10/03 01:25:58;;;;;;;1.10;0.97;;;19.20;84.80;;;;;;5116571;27;20446;-69
2021/10/03 01:28:25;;;;;;;1.63;1.43;;;19.20;84.70;;;;;;5116536;28;20462;-69
2021/10/03 01:30:54;;;;;;;1.30;1.20;;;19.30;84.80;;;;;;5116495;28;20451;-69
2021/10/03 01:33:23;;;;;;;1.63;1.27;;;19.20;84.50;;;;;;5116475;28;20439;-68
2021/10/03 01:35:50;;;;;;;1.57;1.20;;;19.20;84.50;;;;;;5116295;28;20475;-68
2021/10/03 01:38:19;;;;;;;1.10;1.00;;;19.20;84.10;;;;;;5116214;28;20454;-69
2021/10/03 01:40:47;;;;;;;1.27;0.93;;;19.20;84.20;;;;;;5116300;28;20499;-68
2021/10/03 01:43:14;;;;;;;3.17;1.23;;;19.20;84.00;;;;;;5115054;28;20446;-68
2021/10/03 01:45:42;;;;;;;0.87;0.87;;;19.20;84.00;;;;;;5116196;28;20443;-68
2021/10/03 01:48:11;;;;;;;2.93;1.23;;;19.10;84.10;;;;;;5115800;28;21039;-69
2021/10/03 01:50:41;;;;;;;2.00;1.20;;;19.10;84.20;;;;;;5116388;28;20454;-69
2021/10/03 01:53:10;;;;;;;1.63;1.53;;;19.20;84.30;;;;;;5116016;27;20435;-68
2021/10/03 01:55:39;;;;;;;2.57;1.20;;;19.10;84.20;;;;;;5115607;28;21007;-68
2021/10/03 01:58:08;;;;;;;2.13;1.27;;;19.10;84.20;;;;;;5115834;28;20467;-69
2021/10/03 02:00:36;;;;;;;2.30;1.13;;;19.10;84.10;;;;;;5115861;28;20446;-69
2021/10/03 02:03:05;;;;;;;2.10;1.13;;;19.20;84.20;;;;;;5115842;28;20439;-69
2021/10/03 02:05:35;;;;;;;1.77;1.20;;;19.20;83.90;;;;;;5115648;28;20463;-69
2021/10/03 02:08:02;;;;;;;2.93;1.00;;;19.10;84.10;;;;;;5115688;28;20469;-69
2021/10/03 02:10:29;;;;;;;2.40;0.97;;;19.10;84.10;;;;;;5115689;28;20513;-69
2021/10/03 02:12:57;;;;;;;1.80;1.40;;;19.10;84.20;;;;;;5115902;28;20446;-69
2021/10/03 02:15:24;;;;;;;1.30;1.20;;;19.10;84.30;;;;;;5115507;28;20443;-69
2021/10/03 02:17:51;;;;;;;1.03;1.00;;;19.10;84.40;;;;;;5115498;28;20467;-69
2021/10/03 02:20:19;;;;;;;3.37;1.10;;;19.20;84.20;;;;;;5115487;28;20443;-69
2021/10/03 02:22:46;;;;;;;1.60;0.90;;;19.20;84.20;;;;;;5115391;28;20447;-69
2021/10/03 02:25:13;;;;;;;1.53;0.90;;;19.20;84.00;;;;;;5115391;28;20450;-69
2021/10/03 02:27:40;;;;;;;1.50;1.40;;;19.20;84.00;;;;;;5115515;28;20459;-69
2021/10/03 02:30:09;;;;;;;1.87;1.30;;;19.20;83.70;;;;;;5115298;28;20450;-69
2021/10/03 02:32:36;;;;;;;1.30;1.20;;;19.20;83.60;;;;;;5115248;28;20443;-69
2021/10/03 02:35:03;;;;;;;1.47;1.37;;;19.20;83.60;;;;;;5114895;28;20920;-68
2021/10/03 02:37:30;;;;;;;2.63;1.33;;;19.10;83.80;;;;;;5115045;28;20478;-69
2021/10/03 02:39:57;;;;;;;5.20;1.10;;;19.10;83.90;;;;;;5114781;28;20443;-68
2021/10/03 02:42:24;;;;;;;1.43;1.33;;;19.10;84.10;;;;;;5115049;28;20542;-68
2021/10/03 02:44:50;;;;;;;1.87;1.10;;;19.00;84.70;;;;;;5116096;28;20447;-68
2021/10/03 02:47:19;;;;;;;1.23;1.13;;;19.00;84.90;;;;;;5115130;28;20442;-69
2021/10/03 02:49:46;;;;;;;2.43;1.60;;;18.90;84.70;;;;;;5114889;28;20454;-69
2021/10/03 02:52:14;;;;;;;1.63;1.47;;;18.90;84.90;;;;;;5114796;28;20447;-68
2021/10/03 02:54:41;;;;;;;2.03;1.87;;;18.90;85.00;;;;;;5114433;28;20496;-69
2021/10/03 02:57:09;;;;;;;2.23;1.83;;;18.80;85.20;;;;;;5114801;28;20904;-68
2021/10/03 02:59:37;;;;;;;2.40;1.87;;;18.80;86.00;;;;;;5114354;28;20968;-69
2021/10/03 03:02:04;;;;;;;2.10;1.90;;;18.80;86.40;;;;;;5114684;28;20450;-69
2021/10/03 03:04:32;;;;;;;2.10;2.00;;;18.80;86.30;;;;;;5114343;28;20824;-69
2021/10/03 03:06:59;;;;;;;4.97;1.87;;;18.80;86.10;;;;;;5114390;28;20455;-69
2021/10/03 03:09:26;;;;;;;7.13;2.27;;;18.80;85.90;;;;;;5114532;28;20463;-68
2021/10/03 03:11:53;;;;;;;4.23;2.20;;;18.80;85.00;;;;;;5114225;28;20811;-68
2021/10/03 03:14:19;;;;;;;3.90;1.83;;;18.80;85.90;;;;;;5114509;28;20446;-68
2021/10/03 03:16:48;;;;;;;2.53;2.33;;;18.80;85.00;;;;;;5114225;28;20999;-68
2021/10/03 03:19:15;;;;;;;3.10;2.80;;;18.80;84.20;;;;;;5114465;28;20470;-69
2021/10/03 03:21:43;;;;;;;3.00;2.70;;;18.70;83.80;;;;;;5114653;27;20443;-68
2021/10/03 03:24:11;;;;;;;3.10;2.73;;;18.70;83.20;;;;;;5113969;28;20928;-68
2021/10/03 03:26:38;;;;;;;5.33;2.67;;;18.80;82.80;;;;;;5114328;27;20874;-68
2021/10/03 03:29:06;;;;;;;6.07;2.33;;;18.70;81.90;;;;;;5114461;28;20459;-69
2021/10/03 03:31:32;;;;;;;3.03;2.73;;;18.70;81.90;;;;;;5114222;28;20823;-68
2021/10/03 03:33:59;;;;;;;4.00;3.60;;;18.80;81.60;;;;;;5113890;28;20449;-68
2021/10/03 03:36:26;;;;;;;2.80;2.60;;;18.70;81.40;;;;;;5114137;28;20467;-68
2021/10/03 03:38:54;;;;;;;4.90;2.80;;;18.70;81.30;;;;;;5113791;28;20820;-68
2021/10/03 03:41:21;;;;;;;3.00;2.70;;;18.70;81.30;;;;;;5114051;28;20446;-68
2021/10/03 03:43:48;;;;;;;3.10;2.90;;;18.80;81.00;;;;;;5114084;28;20446;-68
2021/10/03 03:46:16;;;;;;;3.83;2.50;;;18.70;80.50;;;;;;5114090;28;20470;-68
2021/10/03 03:48:43;;;;;;;3.37;2.80;;;18.80;80.70;;;;;;5114430;28;20462;-69
2021/10/03 03:51:10;;;;;;;4.43;2.50;;;18.80;80.40;;;;;;5114347;28;20450;-69
2021/10/03 03:53:37;;;;;;;3.43;2.70;;;18.70;80.00;;;;;;5114007;28;20449;-69
2021/10/03 03:56:05;;;;;;;3.10;2.77;;;18.80;80.20;;;;;;5114984;28;20452;-69
2021/10/03 03:58:32;;;;;;;3.93;3.00;;;18.70;79.70;;;;;;5113857;28;20462;-69
2021/10/03 04:00:59;;;;;;;4.40;2.87;;;18.80;79.50;;;;;;5113887;28;20827;-68
2021/10/03 04:03:26;;;;;;;2.50;2.30;;;18.80;79.80;;;;;;5113899;28;20470;-68
2021/10/03 04:05:52;;;;;;;3.43;3.13;;;18.70;79.40;;;;;;5114455;28;20469;-68
2021/10/03 04:08:21;;;;;;;4.20;3.20;;;18.80;79.00;;;;;;5117671;28;20455;-69
2021/10/03 04:10:48;;;;;;;3.40;3.10;;;18.80;79.00;;;;;;5118449;28;20457;-69
2021/10/03 04:13:16;;;;;;;3.40;3.10;;;18.80;78.50;;;;;;5117659;28;20449;-69
2021/10/03 04:15:43;;;;;;;3.00;2.80;;;18.90;78.20;;;;;;5117912;28;20454;-69
2021/10/03 04:18:10;;;;;;;4.67;3.33;;;18.90;77.90;;;;;;5117436;28;20489;-69
2021/10/03 04:20:36;;;;;;;4.83;3.40;;;18.90;77.60;;;;;;5117877;28;20429;-69
2021/10/03 04:23:04;;;;;;;3.43;3.13;;;18.90;77.60;;;;;;5117850;27;20434;-69
2021/10/03 04:25:30;;;;;;;3.40;3.10;;;19.00;77.60;;;;;;5117761;28;20446;-68
2021/10/03 04:27:57;;;;;;;3.47;3.10;;;19.00;77.10;;;;;;5117672;28;20834;-69
2021/10/03 04:30:25;;;;;;;4.50;3.50;;;19.00;76.70;;;;;;5117327;28;20472;-69
2021/10/03 04:32:52;;;;;;;4.13;3.10;;;19.00;76.30;;;;;;5117907;28;20449;-69
2021/10/03 04:35:19;;;;;;;4.00;3.70;;;19.10;76.40;;;;;;5117530;28;20438;-69
2021/10/03 04:37:45;;;;;;;3.40;3.10;;;19.00;75.30;;;;;;5117256;28;20855;-69
2021/10/03 04:40:13;;;;;;;5.83;3.70;;;19.00;75.70;;;;;;5117110;28;20447;-69
2021/10/03 04:42:40;;;;;;;5.30;3.60;;;19.00;75.50;;;;;;5117465;28;20439;-69
2021/10/03 04:45:07;;;;;;;3.90;3.50;;;19.00;76.20;;;;;;5117383;28;20451;-69
2021/10/03 04:47:35;;;;;;;6.00;4.00;;;19.10;75.00;;;;;;5117216;28;20478;-69
2021/10/03 04:50:02;;;;;;;5.87;4.27;;;19.10;74.60;;;;;;5117282;28;20817;-69
2021/10/03 04:52:29;;;;;;;6.80;3.93;;;19.20;74.20;;;;;;5117187;28;20442;-69
2021/10/03 04:54:56;;;;;;;5.23;3.83;;;19.20;74.60;;;;;;5116894;28;20474;-68
2021/10/03 04:57:23;;;;;;;5.43;4.33;;;19.20;73.70;;;;;;5116965;28;20474;-69
2021/10/03 04:59:49;;;;;;;3.97;3.67;;;19.20;74.30;;;;;;5116726;28;20948;-69
2021/10/03 05:02:16;;;;;;;4.83;4.33;;;19.20;73.90;;;;;;5116767;28;20450;-69
2021/10/03 05:04:44;;;;;;;5.80;4.40;;;19.20;73.90;;;;;;5116987;28;20590;-68
2021/10/03 05:07:11;;;;;;;5.07;4.57;;;19.20;73.90;;;;;;5116560;28;20956;-68
2021/10/03 05:09:38;;;;;;;13.20;5.37;;;19.20;73.50;;;;;;5116809;28;20463;-68
2021/10/03 05:12:05;;;;;;;4.90;4.47;;;19.20;73.50;;;;;;5116852;28;20474;-68
2021/10/03 05:14:32;;;;;;;4.57;4.10;;;19.20;73.70;;;;;;5116790;28;20447;-68
2021/10/03 05:16:58;;;;;;;6.93;4.30;;;19.20;73.30;;;;;;5116198;28;20471;-68
2021/10/03 05:19:25;;;;;;;4.83;4.10;;;19.30;73.60;;;;;;5116295;28;20886;-68
2021/10/03 05:21:53;;;;;;;7.67;4.87;;;19.30;73.40;;;;;;5116675;28;20443;-68
2021/10/03 05:24:20;;;;;;;4.97;4.47;;;19.40;73.30;;;;;;5116624;28;20819;-68
2021/10/03 05:26:47;;;;;;;7.00;3.80;;;19.30;73.50;;;;;;5116558;28;20442;-68
2021/10/03 05:29:13;;;;;;;6.57;5.03;;;19.30;73.60;;;;;;5116068;27;20467;-68
2021/10/03 05:31:40;;;;;;;5.07;3.60;;;19.30;73.80;;;;;;5116439;28;20438;-68
2021/10/03 05:34:07;;;;;;;3.90;3.60;;;19.30;74.00;;;;;;5116467;28;20442;-68
2021/10/03 05:36:34;;;;;;;5.03;4.40;;;19.30;74.40;;;;;;5116243;28;20439;-68
2021/10/03 05:39:02;;;;;;;5.60;4.27;;;19.30;74.70;;;;;;5115912;28;20467;-69
2021/10/03 05:41:29;;;;;;;6.40;4.80;;;19.30;74.80;;;;;;5116264;28;20442;-69
2021/10/03 05:43:57;;;;;;;7.33;4.60;;;19.30;74.50;;;;;;5116225;28;20812;-69
2021/10/03 05:46:23;;;;;;;7.07;4.00;;;19.30;74.70;;;;;;5116196;28;20789;-68
2021/10/03 05:48:50;;;;;;;9.00;5.10;;;19.30;74.40;;;;;;5116070;28;20474;-68
2021/10/03 05:51:18;;;;;;;4.67;4.27;;;19.40;74.80;;;;;;5116103;28;20439;-68
2021/10/03 05:53:44;;;;;;;9.60;4.30;;;19.30;74.40;;;;;;5116086;28;20451;-69
2021/10/03 05:56:12;;;;;;;4.50;4.10;;;19.40;74.70;;;;;;5115977;28;20521;-68
2021/10/03 05:58:39;;;;;;;5.90;5.10;;;19.40;74.90;;;;;;5115473;28;20482;-69
2021/10/03 06:01:06;;;;;;;6.63;4.83;;;19.40;75.30;;;;;;5115919;28;20447;-69
2021/10/03 06:03:33;;;;;;;6.37;4.80;;;19.40;75.70;;;;;;5115852;27;20431;-68
2021/10/03 06:05:59;;;;;;;6.67;4.67;;;19.40;75.90;;;;;;5116543;28;20455;-68
2021/10/03 06:08:26;;;;;;;6.33;4.50;;;19.30;76.80;;;;;;5115658;28;20462;-69
2021/10/03 06:10:53;;;;;;;4.90;4.43;;;19.30;76.70;;;;;;5115721;28;20442;-69
2021/10/03 06:13:21;;;;;;;6.50;4.87;;;19.30;77.00;;;;;;5115693;28;20443;-69
2021/10/03 06:15:48;;;;;;;7.90;5.00;;;19.30;77.20;;;;;;5115631;28;20447;-68
2021/10/03 06:18:15;;;;;;;7.13;4.50;;;19.30;76.90;;;;;;5115425;28;20486;-68
2021/10/03 06:20:42;;;;;;;4.93;4.23;;;19.30;76.50;;;;;;5115515;28;20438;-68
2021/10/03 06:23:09;;;;;;;5.70;4.50;;;19.30;77.30;;;;;;5115511;28;20435;-68
2021/10/03 06:25:36;;;;;;;6.70;4.97;;;19.30;76.40;;;;;;5115401;28;20447;-68
2021/10/03 06:28:05;;;;;;;5.00;4.10;;;19.30;76.10;;;;;;5115174;28;20465;-68
2021/10/03 06:30:34;;;;;;;8.63;5.03;;;19.40;76.40;;;;;;5115217;28;20466;-68
2021/10/03 06:33:01;;;;;;;7.23;4.87;;;19.40;76.40;;;;;;5114984;28;20948;-68
2021/10/03 06:35:29;;;;;;;5.17;4.67;;;19.40;77.10;;;;;;5115225;28;20451;-68
2021/10/03 06:37:55;;;;;;;7.20;5.17;;;19.30;77.30;;;;;;5115239;27;20514;-69
2021/10/03 06:40:22;;;;;;;7.67;5.80;;;19.40;77.60;;;;;;5114874;28;20442;-69
2021/10/03 06:42:49;;;;;;;5.20;4.70;;;19.30;78.30;;;;;;5115258;28;20434;-69
2021/10/03 06:45:16;;;;;;;8.00;5.57;;;19.30;78.80;;;;;;5115085;28;20450;-69
2021/10/03 06:47:44;;;;;;;7.23;5.80;;;19.30;78.90;;;;;;5114950;28;20486;-69
2021/10/03 06:50:11;;;;;;;8.07;5.23;;;19.30;79.50;;;;;;5115201;28;20454;-68
2021/10/03 06:52:38;;;;;;;5.63;5.13;;;19.30;80.50;;;;;;5114610;28;20946;-68
2021/10/03 06:55:06;;;;;;;5.70;5.10;;;19.20;81.00;;;;;;5114844;28;20439;-68
2021/10/03 06:57:33;;;;;;;7.77;4.83;;;19.20;81.60;;;;;;5114647;28;20561;-68
2021/10/03 07:00:01;;;;;;;6.13;5.20;;;19.20;82.90;;;;;;5114730;28;20454;-68
2021/10/03 07:02:30;;;;;;;6.00;5.40;;;19.20;83.60;;;;;;5114413;28;20947;-68
2021/10/03 07:04:58;;;;;;;6.00;5.50;;;19.10;84.00;;;;;;5115499;28;20835;-68
2021/10/03 07:07:25;;;;;;;5.90;5.27;;;19.00;84.00;;;;;;5114178;28;20462;-69
2021/10/03 07:09:52;;;;;;;8.57;5.37;;;19.00;84.40;;;;;;5114553;27;20443;-69
2021/10/03 07:12:19;;;;;;;8.93;5.67;;;19.00;85.10;;;;;;5114512;27;20454;-69
2021/10/03 07:14:46;;;;;;;7.93;6.10;;;19.00;85.70;;;;;;5114499;28;20450;-69
2021/10/03 07:17:13;;;;;;;7.17;5.13;;;19.00;86.20;;;;;;5114382;27;20470;-69
2021/10/03 07:19:41;;;;;;;6.00;5.40;;;19.00;86.70;;;;;;5114627;28;20458;-69
2021/10/03 07:22:09;;;;;;;5.80;5.30;;;19.10;86.40;;;;;;5114199;28;20446;-68
2021/10/03 07:24:37;;;;;;;5.83;5.33;;;19.00;85.40;;;;;;5114815;28;20427;-69
2021/10/03 07:27:05;;;;;;;6.13;5.53;;;19.10;85.80;;;;;;5114420;28;20446;-68
2021/10/03 07:29:32;;;;;;;5.50;4.87;;;19.10;85.20;;;;;;5114016;28;20979;-68
2021/10/03 07:31:59;;;;;;;5.93;5.43;;;19.10;84.50;;;;;;5114853;28;20450;-68
2021/10/03 07:34:25;;;;;;;5.40;4.90;;;19.10;84.40;;;;;;5114293;28;20431;-68
2021/10/03 07:36:52;;;;;;;8.50;5.10;;;19.10;84.40;;;;;;5114057;28;20928;-68
2021/10/03 07:39:20;;;;;;;6.50;4.63;;;19.10;84.10;;;;;;5114350;28;20483;-68
2021/10/03 07:41:47;;;;;;;6.40;5.03;;;19.00;84.30;;;;;;5112975;28;20956;-68
2021/10/03 07:44:14;;;;;;;6.30;5.47;;;19.00;84.80;;;;;;5114601;28;20805;-68
2021/10/03 07:46:41;;;;;;;6.30;5.70;;;19.00;84.60;;;;;;5114267;28;21043;-68
2021/10/03 07:49:08;;;;;;;5.60;4.83;;;19.00;84.80;;;;;;5114025;28;20463;-68
2021/10/03 07:51:34;;;;;;;5.93;5.43;;;19.10;85.50;;;;;;5114037;28;20447;-68
2021/10/03 07:54:01;;;;;;;7.23;6.00;;;19.10;85.10;;;;;;5113912;28;20944;-68
2021/10/03 07:56:29;;;;;;;6.93;5.40;;;19.10;85.20;;;;;;5113929;28;20446;-68
2021/10/03 07:58:56;;;;;;;5.63;4.70;;;19.10;84.60;;;;;;5113776;28;20552;-68
2021/10/03 08:01:23;;;;;;;6.23;5.70;;;19.10;85.00;;;;;;5113918;28;20435;-68
2021/10/03 08:03:50;;;;;;;6.87;5.47;;;19.10;84.90;;;;;;5113965;28;20442;-68
2021/10/03 08:06:17;;;;;;;5.67;5.10;;;19.10;84.90;;;;;;5113764;28;20459;-68
2021/10/03 08:08:44;;;;;;;5.97;5.37;;;19.10;84.50;;;;;;5113758;28;20455;-68
2021/10/03 08:11:11;;;;;;;10.00;5.33;;;19.10;84.60;;;;;;5113502;28;20443;-68
2021/10/03 08:13:39;;;;;;;5.80;4.03;;;19.20;84.40;;;;;;5113789;28;20454;-68
2021/10/03 08:16:08;;;;;;;5.57;5.03;;;19.20;84.30;;;;;;5113432;28;20481;-68
2021/10/03 08:18:35;;;;;;;5.83;5.20;;;19.20;83.90;;;;;;5113606;28;20555;-68
2021/10/03 08:21:02;;;;;;;5.60;5.10;;;19.20;84.20;;;;;;5113384;28;20977;-68
2021/10/03 08:23:29;;;;;;;5.70;5.20;;;19.20;84.40;;;;;;5113722;28;20442;-68
2021/10/03 08:25:57;;;;;;;5.83;4.60;;;19.20;84.00;;;;;;5113682;28;20447;-68
2021/10/03 08:28:24;;;;;;;5.77;5.23;;;19.30;84.40;;;;;;5113629;28;20467;-68
2021/10/03 08:30:52;;;;;;;6.90;5.23;;;19.30;84.20;;;;;;5113620;28;20811;-68
2021/10/03 08:33:19;;;;;;;9.17;5.43;;;19.40;84.30;;;;;;5113652;28;20447;-69
2021/10/03 08:35:46;;;;;;;5.87;4.60;;;19.40;84.00;;;;;;5113582;28;20449;-68
2021/10/03 08:38:12;;;;;;;5.23;4.77;;;19.40;84.10;;;;;;5113387;28;20478;-68
2021/10/03 08:40:39;;;;;;;5.80;5.30;;;19.40;84.10;;;;;;5113172;28;20975;-68
2021/10/03 08:43:08;;;;;;;8.87;4.97;;;19.30;84.70;;;;;;5113183;28;20826;-68
2021/10/03 08:45:39;;;;;;;5.80;5.30;;;19.40;86.20;;;;;;5114068;28;20490;-68
2021/10/03 08:48:09;;;;;;;6.60;5.73;;;19.30;85.80;;;;;;5113407;28;20458;-68
2021/10/03 08:50:36;;;;;;;7.77;5.30;;;19.30;86.80;;;;;;5113149;28;20815;-68
2021/10/03 08:53:02;;;;;;;6.00;5.40;;;19.20;87.30;;;;;;5116032;28;20450;-68
2021/10/03 08:55:29;;;;;;;5.17;4.77;;;19.20;87.60;;;;;;5117183;28;20837;-68
2021/10/03 08:57:56;;;;;;;6.37;5.73;;;19.10;88.30;;;;;;5117007;28;20556;-69
2021/10/03 09:00:24;;;;;;;5.43;4.73;;;19.10;88.00;;;;;;5117123;28;20438;-68
2021/10/03 09:03:02;;;;;;;4.73;4.27;;;19.10;88.30;;;;;;5117347;28;20443;-68
2021/10/03 09:05:34;;;;;;;6.20;5.70;;;19.10;89.00;;;;;;5116940;28;20430;-68
2021/10/03 09:08:07;;;;;;;5.70;5.20;;;19.10;89.20;;;;;;5117275;28;20952;-69
2021/10/03 09:10:50;;;;;;;7.43;5.00;;;19.00;89.30;;;;;;5116957;27;20790;-69
2021/10/03 09:13:19;;;;;;;5.53;5.03;;;19.10;89.70;;;;;;5116926;28;20433;-69
2021/10/03 09:15:46;;;;;;;7.87;4.70;;;19.10;89.30;;;;;;5116872;28;20467;-68
2021/10/03 09:18:15;;;;;;;6.60;5.13;;;19.10;89.90;;;;;;5116329;28;20497;-69
2021/10/03 09:20:44;;;;;;;5.67;4.67;;;19.10;89.20;;;;;;5116705;28;20449;-68
2021/10/03 09:23:14;;;;;;;5.50;5.10;;;19.10;88.90;;;;;;5116673;28;20863;-68
2021/10/03 09:25:44;;;;;;;6.47;5.13;;;19.20;88.60;;;;;;5116556;28;20522;-68
2021/10/03 09:28:14;;;;;;;5.20;4.70;;;19.30;88.70;;;;;;5116523;28;20461;-68
2021/10/03 09:30:55;;;;;;;5.53;5.13;;;19.30;87.80;;;;;;5116504;28;20520;-68
2021/10/03 09:33:23;;;;;;;6.40;5.27;;;19.40;87.80;;;;;;5116445;28;20448;-69
2021/10/03 09:36:03;;;;;;;5.63;5.10;;;19.40;87.50;;;;;;5116704;28;20427;-69
2021/10/03 09:38:30;;;;;;;5.40;4.90;;;19.50;87.00;;;;;;5116273;28;20486;-68
2021/10/03 09:41:04;;;;;;;4.57;4.17;;;19.50;86.40;;;;;;5116422;28;20431;-68
2021/10/03 09:43:42;;;;;;;4.80;4.20;;;19.50;86.50;;;;;;5115963;28;20543;-68
2021/10/03 09:46:10;;;;;;;5.83;4.07;;;19.60;86.50;;;;;;5116233;28;20427;-68
2021/10/03 09:48:47;;;;;;;8.37;4.80;;;19.60;86.40;;;;;;5116319;28;20458;-68
2021/10/03 09:51:16;;;;;;;5.37;4.87;;;19.70;86.10;;;;;;5115846;28;20859;-68
2021/10/03 09:53:44;;;;;;;3.93;3.67;;;19.70;85.30;;;;;;5116147;28;20427;-68
2021/10/03 09:56:12;;;;;;;6.77;4.77;;;19.80;85.20;;;;;;5116128;28;20442;-68
2021/10/03 09:58:39;;;;;;;5.80;4.40;;;19.90;84.90;;;;;;5115805;28;20842;-68
2021/10/03 10:01:06;;;;;;;5.57;3.80;;;19.90;84.60;;;;;;5115932;28;20442;-68
2021/10/03 10:03:35;;;;;;;4.87;4.33;;;20.10;84.50;;;;;;5114775;28;20479;-68
2021/10/03 10:06:02;;;;;;;4.87;4.37;;;20.20;84.20;;;;;;5115760;28;20455;-68
2021/10/03 10:08:31;;;;;;;4.80;4.30;;;20.20;83.70;;;;;;5115668;28;20470;-69
2021/10/03 10:11:04;;;;;;;5.27;4.40;;;20.10;83.40;;;;;;5115835;28;20443;-68
2021/10/03 10:13:33;;;;;;;5.33;4.13;;;20.20;84.60;;;;;;5115607;27;20521;-68
2021/10/03 10:16:31;;;;;;;5.80;4.27;;;20.20;84.60;;;;;;5115813;28;20447;-69
2021/10/03 10:19:32;;;;;;;4.57;4.17;;;20.10;84.30;;;;;;5115714;28;20482;-69
2021/10/03 10:22:38;;;;;;;4.53;4.10;;;20.20;84.60;;;;;;5115737;28;20447;-69
2021/10/03 10:25:22;;;;;;;6.17;4.17;;;20.10;85.10;;;;;;5115585;28;20428;-69
2021/10/03 10:28:00;;;;;;;5.27;4.60;;;20.20;85.10;;;;;;5115390;28;20470;-69
2021/10/03 10:30:27;;;;;;;7.50;4.70;;;20.20;85.60;;;;;;5115375;28;20430;-69
2021/10/03 10:33:11;;;;;;;5.53;3.93;;;20.20;85.50;;;;;;5114999;28;20936;-68
2021/10/03 10:35:41;;;;;;;4.17;3.87;;;20.20;85.20;;;;;;5115448;28;20427;-68
2021/10/03 10:38:15;;;;;;;4.13;3.73;;;20.20;84.20;;;;;;5115135;28;20498;-68
2021/10/03 10:40:43;;;;;;;5.13;4.63;;;20.20;84.60;;;;;;5115245;28;20430;-69
2021/10/03 10:43:43;;;;;;;8.10;4.40;;;20.20;84.40;;;;;;5114830;28;20953;-68
2021/10/03 10:46:44;;;;;;;4.57;4.17;;;20.30;83.80;;;;;;5115084;28;20419;-68
2021/10/03 10:49:35;;;;;;;3.93;3.60;;;20.30;83.30;;;;;;5114888;28;20500;-68
2021/10/03 10:52:31;;;;;;;7.87;4.50;;;20.30;83.00;;;;;;5115089;28;20431;-68
2021/10/03 10:55:23;;;;;;;5.07;4.57;;;20.30;82.00;;;;;;5114606;28;20925;-68
2021/10/03 10:58:10;;;;;;;6.40;4.57;;;20.30;82.50;;;;;;5114758;28;20473;-68
2021/10/03 11:00:56;;;;;;;5.50;4.00;;;20.40;81.70;;;;;;5114141;28;20963;-68
2021/10/03 11:03:56;;;;;;;4.07;3.77;;;20.40;81.30;;;;;;5114444;28;20905;-68
2021/10/03 11:06:59;;;;;;;4.83;4.13;;;20.40;81.00;;;;;;5114395;28;20466;-68
2021/10/03 11:09:27;;;;;;;5.10;4.60;;;20.40;81.20;;;;;;5114555;28;20455;-68
2021/10/03 11:12:09;;;;;;;5.50;4.20;;;20.50;81.50;;;;;;5114747;28;20427;-68
2021/10/03 11:14:41;;;;;;;5.23;4.23;;;20.40;80.60;;;;;;5114395;28;20427;-68
2021/10/03 11:17:10;;;;;;;4.50;4.10;;;20.50;81.20;;;;;;5114505;28;20434;-68
2021/10/03 11:19:43;;;;;;;6.23;4.80;;;20.50;81.10;;;;;;5114020;28;20483;-68
2021/10/03 11:22:12;;;;;;;4.70;4.30;;;20.50;80.90;;;;;;5114481;28;20802;-68
2021/10/03 11:24:42;;;;;;;4.83;4.43;;;20.50;80.90;;;;;;5114411;28;20430;-69
2021/10/03 11:27:10;;;;;;;5.73;5.20;;;20.50;81.60;;;;;;5114343;28;20412;-69
2021/10/03 11:29:42;;;;;;;5.50;5.00;;;20.60;81.20;;;;;;5113892;28;20995;-68
2021/10/03 11:32:10;;;;;;;4.63;3.80;;;20.60;81.00;;;;;;5114217;28;20458;-68
2021/10/03 11:34:39;;;;;;;6.33;4.47;;;20.60;80.70;;;;;;5114218;28;20514;-68
2021/10/03 11:37:08;;;;;;;4.83;4.43;;;20.70;80.50;;;;;;5114179;28;20449;-68
2021/10/03 11:39:42;;;;;;;4.73;4.33;;;20.70;80.20;;;;;;5113993;28;20505;-68
2021/10/03 11:42:11;;;;;;;5.13;3.90;;;20.80;80.10;;;;;;5114110;28;20918;-68
2021/10/03 11:44:40;;;;;;;5.40;4.00;;;20.90;79.80;;;;;;5114095;28;20443;-68
2021/10/03 11:47:09;;;;;;;5.67;4.80;;;20.90;78.60;;;;;;5114156;28;20450;-68
2021/10/03 11:49:39;;;;;;;4.73;4.03;;;20.80;78.30;;;;;;5114017;28;20462;-68
2021/10/03 11:52:08;;;;;;;4.67;4.27;;;20.80;78.30;;;;;;5113742;28;20936;-68
2021/10/03 11:54:37;;;;;;;5.73;4.80;;;20.90;78.70;;;;;;5113730;28;20911;-68
2021/10/03 11:57:27;;;;;;;10.00;4.50;;;20.90;78.80;;;;;;5113925;28;20450;-68
2021/10/03 12:00:08;;;;;;;4.30;3.90;;;21.00;78.30;;;;;;5113891;28;20467;-69
2021/10/03 12:02:36;;;;;;;3.73;3.43;;;21.00;77.30;;;;;;5113664;28;20932;-69
2021/10/03 12:05:04;;;;;;;4.00;3.70;;;20.90;77.30;;;;;;5113856;28;20449;-69
2021/10/03 12:07:31;;;;;;;4.13;3.80;;;20.90;77.30;;;;;;5113451;28;20451;-69
2021/10/03 12:10:02;;;;;;;5.67;4.20;;;20.90;76.90;;;;;;5113553;28;20446;-69
2021/10/03 12:12:53;;;;;;;4.60;3.40;;;20.90;77.10;;;;;;5113646;28;20920;-68
2021/10/03 12:15:43;;;;;;;5.20;3.77;;;20.90;77.00;;;;;;5113971;28;20407;-68
2021/10/03 12:18:12;;;;;;;4.00;3.70;;;21.00;76.80;;;;;;5113499;28;21108;-69
2021/10/03 12:20:53;;;;;;;4.20;3.60;;;21.00;76.90;;;;;;5113790;28;20552;-69
2021/10/03 12:23:23;;;;;;;6.77;4.17;;;21.10;76.60;;;;;;5113797;28;20426;-68
2021/10/03 12:25:51;;;;;;;3.73;3.13;;;21.20;75.70;;;;;;5113429;28;20434;-69
2021/10/03 12:28:19;;;;;;;4.53;4.10;;;21.30;75.70;;;;;;5116816;28;20473;-69
2021/10/03 12:30:52;;;;;;;9.77;4.07;;;21.40;75.00;;;;;;5117644;28;20438;-69
2021/10/03 12:33:19;;;;;;;4.50;4.10;;;21.50;74.90;;;;;;5117821;28;20456;-69
2021/10/03 12:36:00;;;;;;;4.40;3.67;;;21.50;74.20;;;;;;5117286;28;20963;-69
2021/10/03 12:38:27;;;;;;;9.47;3.70;;;21.60;74.30;;;;;;5117588;28;20492;-69
2021/10/03 12:40:54;;;;;;;9.80;3.83;;;21.60;73.20;;;;;;5117489;28;20449;-69
2021/10/03 12:43:22;;;;;;;3.87;3.57;;;21.70;73.60;;;;;;5117530;28;20481;-69
2021/10/03 12:45:50;;;;;;;5.17;3.50;;;21.80;73.30;;;;;;5117149;28;20814;-69
2021/10/03 12:48:17;;;;;;;4.70;4.17;;;21.80;73.40;;;;;;5117370;28;20489;-69
2021/10/03 12:50:44;;;;;;;3.60;3.00;;;21.80;74.00;;;;;;5117372;28;20439;-69
2021/10/03 12:53:11;;;;;;;4.53;3.57;;;21.80;75.20;;;;;;5117220;28;20447;-70
2021/10/03 12:55:38;;;;;;;4.70;3.57;;;21.80;76.10;;;;;;5117496;28;20427;-69
2021/10/03 12:58:05;;;;;;;4.50;4.10;;;21.80;76.40;;;;;;5117364;28;20831;-69